Terminal Aerodrome Forecast
Issued by NWS

Home | Current Version | Previous Version | Text Only | Print | Product List | Glossary On
Versions: 1 2 3 4 5 6 7 8 9 10 11 12
000
FTUS43 KICT 232320
TAFRSL
TAF
KRSL 232320Z 2400/2424 19007KT P6SM SCT250
     FM241200 25009KT P6SM SCT250
     FM241700 30014G20KT P6SM SCT250
     FM242100 35015G23KT P6SM BKN200=

USA.gov is the U.S. government's official web portal to all federal, state and local government web resources and services.